sensor_id;sensor_type;location;lat;lon;timestamp;temperature;humidity
1361;DHT22;674;45.552;-122.600;2023-04-06T00:00:08;12.60;1.00
1361;DHT22;674;45.552;-122.600;2023-04-06T00:02:37;12.50;1.00
1361;DHT22;674;45.552;-122.600;2023-04-06T00:05:06;12.40;1.00
1361;DHT22;674;45.552;-122.600;2023-04-06T00:07:34;12.60;1.00
1361;DHT22;674;45.552;-122.600;2023-04-06T00:10:03;12.60;1.00
1361;DHT22;674;45.552;-122.600;2023-04-06T00:12:32;12.90;1.00
1361;DHT22;674;45.552;-122.600;2023-04-06T00:15:00;12.70;1.00
1361;DHT22;674;45.552;-122.600;2023-04-06T00:17:29;12.50;1.00
1361;DHT22;674;45.552;-122.600;2023-04-06T00:19:58;12.70;1.00
1361;DHT22;674;45.552;-122.600;2023-04-06T00:22:26;12.80;1.00
1361;DHT22;674;45.552;-122.600;2023-04-06T00:24:55;12.40;1.00
1361;DHT22;674;45.552;-122.600;2023-04-06T00:27:24;12.40;1.00
1361;DHT22;674;45.552;-122.600;2023-04-06T00:29:53;12.30;1.00
1361;DHT22;674;45.552;-122.600;2023-04-06T00:32:21;12.40;1.00
1361;DHT22;674;45.552;-122.600;2023-04-06T00:34:50;12.50;1.00
1361;DHT22;674;45.552;-122.600;2023-04-06T00:37:18;12.40;1.00
1361;DHT22;674;45.552;-122.600;2023-04-06T00:39:47;12.00;1.00
1361;DHT22;674;45.552;-122.600;2023-04-06T00:42:16;12.20;1.00
1361;DHT22;674;45.552;-122.600;2023-04-06T00:44:45;11.90;1.00
1361;DHT22;674;45.552;-122.600;2023-04-06T00:47:14;11.80;1.00
1361;DHT22;674;45.552;-122.600;2023-04-06T00:49:42;11.90;1.00
1361;DHT22;674;45.552;-122.600;2023-04-06T00:52:11;12.10;1.00
1361;DHT22;674;45.552;-122.600;2023-04-06T00:54:39;12.10;1.00
1361;DHT22;674;45.552;-122.600;2023-04-06T00:57:08;12.30;1.00
1361;DHT22;674;45.552;-122.600;2023-04-06T00:59:36;12.40;1.00
1361;DHT22;674;45.552;-122.600;2023-04-06T01:02:05;12.70;1.00
1361;DHT22;674;45.552;-122.600;2023-04-06T01:04:34;13.10;1.00
1361;DHT22;674;45.552;-122.600;2023-04-06T01:07:02;13.10;1.00
1361;DHT22;674;45.552;-122.600;2023-04-06T01:09:31;12.90;1.00
1361;DHT22;674;45.552;-122.600;2023-04-06T01:12:00;12.90;1.00
1361;DHT22;674;45.552;-122.600;2023-04-06T01:14:28;12.70;1.00
1361;DHT22;674;45.552;-122.600;2023-04-06T01:16:58;12.40;1.00
1361;DHT22;674;45.552;-122.600;2023-04-06T01:19:28;12.50;1.00
1361;DHT22;674;45.552;-122.600;2023-04-06T01:21:56;12.30;1.00
1361;DHT22;674;45.552;-122.600;2023-04-06T01:24:25;12.20;1.00
1361;DHT22;674;45.552;-122.600;2023-04-06T01:26:53;12.10;1.00
1361;DHT22;674;45.552;-122.600;2023-04-06T01:29:22;12.30;1.00
1361;DHT22;674;45.552;-122.600;2023-04-06T01:31:51;12.20;1.00
1361;DHT22;674;45.552;-122.600;2023-04-06T01:34:19;12.10;1.00
1361;DHT22;674;45.552;-122.600;2023-04-06T01:36:48;12.00;1.00
1361;DHT22;674;45.552;-122.600;2023-04-06T01:39:17;12.10;1.00
1361;DHT22;674;45.552;-122.600;2023-04-06T01:41:45;12.00;1.00
1361;DHT22;674;45.552;-122.600;2023-04-06T01:44:18;11.70;1.00
1361;DHT22;674;45.552;-122.600;2023-04-06T01:46:49;11.60;1.00
1361;DHT22;674;45.552;-122.600;2023-04-06T01:49:17;11.60;1.00
1361;DHT22;674;45.552;-122.600;2023-04-06T01:51:46;11.30;1.00
1361;DHT22;674;45.552;-122.600;2023-04-06T01:54:14;11.30;1.00
1361;DHT22;674;45.552;-122.600;2023-04-06T01:56:43;11.20;1.00
1361;DHT22;674;45.552;-122.600;2023-04-06T01:59:11;11.40;1.00
1361;DHT22;674;45.552;-122.600;2023-04-06T02:01:40;11.30;1.00
1361;DHT22;674;45.552;-122.600;2023-04-06T02:04:08;11.30;1.00
1361;DHT22;674;45.552;-122.600;2023-04-06T02:06:37;11.30;1.00
1361;DHT22;674;45.552;-122.600;2023-04-06T02:09:05;10.90;1.00
1361;DHT22;674;45.552;-122.600;2023-04-06T02:11:34;10.50;1.00
1361;DHT22;674;45.552;-122.600;2023-04-06T02:14:03;10.50;1.00
1361;DHT22;674;45.552;-122.600;2023-04-06T02:16:32;10.50;1.00
1361;DHT22;674;45.552;-122.600;2023-04-06T02:19:01;10.40;1.00
1361;DHT22;674;45.552;-122.600;2023-04-06T02:21:29;10.30;1.00
1361;DHT22;674;45.552;-122.600;2023-04-06T02:23:58;10.50;1.00
1361;DHT22;674;45.552;-122.600;2023-04-06T02:26:26;10.60;1.00
1361;DHT22;674;45.552;-122.600;2023-04-06T02:28:55;10.50;1.00
1361;DHT22;674;45.552;-122.600;2023-04-06T02:31:23;10.80;1.00
1361;DHT22;674;45.552;-122.600;2023-04-06T02:33:52;10.60;1.00
1361;DHT22;674;45.552;-122.600;2023-04-06T02:36:20;10.30;1.00
1361;DHT22;674;45.552;-122.600;2023-04-06T02:38:49;10.60;1.00
1361;DHT22;674;45.552;-122.600;2023-04-06T02:41:17;10.60;1.00
1361;DHT22;674;45.552;-122.600;2023-04-06T02:43:46;10.50;1.00
1361;DHT22;674;45.552;-122.600;2023-04-06T02:46:14;10.60;1.00
1361;DHT22;674;45.552;-122.600;2023-04-06T02:48:43;10.60;1.00
1361;DHT22;674;45.552;-122.600;2023-04-06T02:51:11;10.50;1.00
1361;DHT22;674;45.552;-122.600;2023-04-06T02:53:40;10.70;1.00
1361;DHT22;674;45.552;-122.600;2023-04-06T02:56:08;10.70;1.00
1361;DHT22;674;45.552;-122.600;2023-04-06T02:58:37;10.70;1.00
1361;DHT22;674;45.552;-122.600;2023-04-06T03:01:05;10.40;1.00
1361;DHT22;674;45.552;-122.600;2023-04-06T03:03:34;10.40;1.00
1361;DHT22;674;45.552;-122.600;2023-04-06T03:06:02;10.40;1.00
1361;DHT22;674;45.552;-122.600;2023-04-06T03:08:31;10.40;1.00
1361;DHT22;674;45.552;-122.600;2023-04-06T03:10:59;10.30;1.00
1361;DHT22;674;45.552;-122.600;2023-04-06T03:13:28;10.20;1.00
1361;DHT22;674;45.552;-122.600;2023-04-06T03:15:56;10.10;1.00
1361;DHT22;674;45.552;-122.600;2023-04-06T03:18:25;10.00;1.00
1361;DHT22;674;45.552;-122.600;2023-04-06T03:20:54;9.90;1.00
1361;DHT22;674;45.552;-122.600;2023-04-06T03:23:22;9.70;1.00
1361;DHT22;674;45.552;-122.600;2023-04-06T03:25:51;9.60;1.00
1361;DHT22;674;45.552;-122.600;2023-04-06T03:28:19;9.70;1.00
1361;DHT22;674;45.552;-122.600;2023-04-06T03:30:49;9.70;1.00
1361;DHT22;674;45.552;-122.600;2023-04-06T03:33:17;9.50;1.00
1361;DHT22;674;45.552;-122.600;2023-04-06T03:35:46;9.50;1.00
1361;DHT22;674;45.552;-122.600;2023-04-06T03:38:14;9.60;1.00
1361;DHT22;674;45.552;-122.600;2023-04-06T03:40:43;9.70;1.00
1361;DHT22;674;45.552;-122.600;2023-04-06T03:43:12;9.60;1.00
1361;DHT22;674;45.552;-122.600;2023-04-06T03:45:41;9.70;1.00
1361;DHT22;674;45.552;-122.600;2023-04-06T03:48:09;9.70;1.00
1361;DHT22;674;45.552;-122.600;2023-04-06T03:50:37;9.40;1.00
1361;DHT22;674;45.552;-122.600;2023-04-06T03:53:06;9.30;1.00
1361;DHT22;674;45.552;-122.600;2023-04-06T03:55:34;9.40;1.00
1361;DHT22;674;45.552;-122.600;2023-04-06T03:58:03;9.10;1.00
1361;DHT22;674;45.552;-122.600;2023-04-06T04:00:31;9.10;1.00
1361;DHT22;674;45.552;-122.600;2023-04-06T04:03:00;9.00;1.00
1361;DHT22;674;45.552;-122.600;2023-04-06T04:05:30;9.00;1.00
1361;DHT22;674;45.552;-122.600;2023-04-06T04:07:58;9.30;1.00
1361;DHT22;674;45.552;-122.600;2023-04-06T04:10:27;9.00;1.00
1361;DHT22;674;45.552;-122.600;2023-04-06T04:12:55;9.00;1.00
1361;DHT22;674;45.552;-122.600;2023-04-06T04:15:24;9.30;1.00
1361;DHT22;674;45.552;-122.600;2023-04-06T04:17:52;9.10;1.00
1361;DHT22;674;45.552;-122.600;2023-04-06T04:20:21;9.10;1.00
1361;DHT22;674;45.552;-122.600;2023-04-06T04:22:50;9.30;1.00
1361;DHT22;674;45.552;-122.600;2023-04-06T04:25:19;9.10;1.00
1361;DHT22;674;45.552;-122.600;2023-04-06T04:27:47;8.90;1.00
1361;DHT22;674;45.552;-122.600;2023-04-06T04:30:16;9.10;1.00
1361;DHT22;674;45.552;-122.600;2023-04-06T04:32:45;8.90;1.00
1361;DHT22;674;45.552;-122.600;2023-04-06T04:35:13;9.20;14.20
1361;DHT22;674;45.552;-122.600;2023-04-06T04:37:42;8.90;14.00
1361;DHT22;674;45.552;-122.600;2023-04-06T04:40:11;8.80;4.40
1361;DHT22;674;45.552;-122.600;2023-04-06T04:42:39;8.90;1.50
1361;DHT22;674;45.552;-122.600;2023-04-06T04:45:08;8.80;10.40
1361;DHT22;674;45.552;-122.600;2023-04-06T04:47:37;8.90;19.90
1361;DHT22;674;45.552;-122.600;2023-04-06T04:50:06;9.10;26.10
1361;DHT22;674;45.552;-122.600;2023-04-06T04:52:34;9.10;44.30
1361;DHT22;674;45.552;-122.600;2023-04-06T04:55:03;9.20;46.60
1361;DHT22;674;45.552;-122.600;2023-04-06T04:57:31;9.20;47.40
1361;DHT22;674;45.552;-122.600;2023-04-06T05:00:00;9.30;44.10
1361;DHT22;674;45.552;-122.600;2023-04-06T05:02:29;9.30;47.50
1361;DHT22;674;45.552;-122.600;2023-04-06T05:04:58;9.00;35.60
1361;DHT22;674;45.552;-122.600;2023-04-06T05:07:26;8.90;42.60
1361;DHT22;674;45.552;-122.600;2023-04-06T05:09:55;8.80;55.80
1361;DHT22;674;45.552;-122.600;2023-04-06T05:12:23;8.80;50.40
1361;DHT22;674;45.552;-122.600;2023-04-06T05:14:53;8.90;61.10
1361;DHT22;674;45.552;-122.600;2023-04-06T05:17:22;8.70;64.10
1361;DHT22;674;45.552;-122.600;2023-04-06T05:19:51;8.70;77.20
1361;DHT22;674;45.552;-122.600;2023-04-06T05:22:19;8.60;81.20
1361;DHT22;674;45.552;-122.600;2023-04-06T05:24:48;8.60;84.80
1361;DHT22;674;45.552;-122.600;2023-04-06T05:27:17;8.90;90.60
1361;DHT22;674;45.552;-122.600;2023-04-06T05:29:45;8.60;97.90
1361;DHT22;674;45.552;-122.600;2023-04-06T05:32:16;8.40;95.50
1361;DHT22;674;45.552;-122.600;2023-04-06T05:34:44;8.80;99.90
1361;DHT22;674;45.552;-122.600;2023-04-06T05:37:13;8.50;99.90
1361;DHT22;674;45.552;-122.600;2023-04-06T05:39:42;8.50;99.90
1361;DHT22;674;45.552;-122.600;2023-04-06T05:42:10;8.40;99.90
1361;DHT22;674;45.552;-122.600;2023-04-06T05:44:39;8.40;99.90
1361;DHT22;674;45.552;-122.600;2023-04-06T05:47:08;8.50;99.90
1361;DHT22;674;45.552;-122.600;2023-04-06T05:49:36;8.50;99.90
1361;DHT22;674;45.552;-122.600;2023-04-06T05:52:04;8.90;99.90
1361;DHT22;674;45.552;-122.600;2023-04-06T05:54:33;8.60;99.90
1361;DHT22;674;45.552;-122.600;2023-04-06T05:57:02;8.60;99.90
1361;DHT22;674;45.552;-122.600;2023-04-06T05:59:31;8.70;99.90
1361;DHT22;674;45.552;-122.600;2023-04-06T06:02:00;8.80;99.90
1361;DHT22;674;45.552;-122.600;2023-04-06T06:04:30;8.60;99.90
1361;DHT22;674;45.552;-122.600;2023-04-06T06:06:59;8.60;99.90
1361;DHT22;674;45.552;-122.600;2023-04-06T06:09:28;8.50;99.90
1361;DHT22;674;45.552;-122.600;2023-04-06T06:11:56;8.50;99.90
1361;DHT22;674;45.552;-122.600;2023-04-06T06:14:25;8.30;99.90
1361;DHT22;674;45.552;-122.600;2023-04-06T06:16:56;8.30;99.90
1361;DHT22;674;45.552;-122.600;2023-04-06T06:19:24;8.30;99.90
1361;DHT22;674;45.552;-122.600;2023-04-06T06:21:53;8.30;99.90
1361;DHT22;674;45.552;-122.600;2023-04-06T06:24:21;8.30;99.90
1361;DHT22;674;45.552;-122.600;2023-04-06T06:26:50;8.30;99.90
1361;DHT22;674;45.552;-122.600;2023-04-06T06:29:19;8.20;99.90
1361;DHT22;674;45.552;-122.600;2023-04-06T06:31:47;8.10;99.90
1361;DHT22;674;45.552;-122.600;2023-04-06T06:34:16;8.00;99.90
1361;DHT22;674;45.552;-122.600;2023-04-06T06:36:44;8.10;99.90
1361;DHT22;674;45.552;-122.600;2023-04-06T06:39:15;8.10;99.90
1361;DHT22;674;45.552;-122.600;2023-04-06T06:41:43;8.00;99.90
1361;DHT22;674;45.552;-122.600;2023-04-06T06:44:12;7.90;99.90
1361;DHT22;674;45.552;-122.600;2023-04-06T06:46:41;7.90;99.90
1361;DHT22;674;45.552;-122.600;2023-04-06T06:49:09;7.90;99.90
1361;DHT22;674;45.552;-122.600;2023-04-06T06:51:40;7.90;99.90
1361;DHT22;674;45.552;-122.600;2023-04-06T06:54:09;7.80;99.90
1361;DHT22;674;45.552;-122.600;2023-04-06T06:56:38;8.10;99.90
1361;DHT22;674;45.552;-122.600;2023-04-06T06:59:07;7.90;99.90
1361;DHT22;674;45.552;-122.600;2023-04-06T07:01:36;7.80;99.90
1361;DHT22;674;45.552;-122.600;2023-04-06T07:04:05;7.80;99.90
1361;DHT22;674;45.552;-122.600;2023-04-06T07:06:35;7.60;99.90
1361;DHT22;674;45.552;-122.600;2023-04-06T07:09:04;7.70;99.90
1361;DHT22;674;45.552;-122.600;2023-04-06T07:11:32;7.70;99.90
1361;DHT22;674;45.552;-122.600;2023-04-06T07:14:01;7.70;99.90
1361;DHT22;674;45.552;-122.600;2023-04-06T07:16:29;7.60;99.90
1361;DHT22;674;45.552;-122.600;2023-04-06T07:18:58;7.60;99.90
1361;DHT22;674;45.552;-122.600;2023-04-06T07:21:27;7.60;99.90
1361;DHT22;674;45.552;-122.600;2023-04-06T07:23:55;7.50;99.90
1361;DHT22;674;45.552;-122.600;2023-04-06T07:26:24;7.50;99.90
1361;DHT22;674;45.552;-122.600;2023-04-06T07:28:52;7.60;99.90
1361;DHT22;674;45.552;-122.600;2023-04-06T07:31:21;7.60;99.90
1361;DHT22;674;45.552;-122.600;2023-04-06T07:33:49;7.50;99.90
1361;DHT22;674;45.552;-122.600;2023-04-06T07:36:18;7.50;99.90
1361;DHT22;674;45.552;-122.600;2023-04-06T07:38:46;7.60;99.90
1361;DHT22;674;45.552;-122.600;2023-04-06T07:41:15;7.50;99.90
1361;DHT22;674;45.552;-122.600;2023-04-06T07:43:43;7.40;99.90
1361;DHT22;674;45.552;-122.600;2023-04-06T07:46:12;7.40;99.90
1361;DHT22;674;45.552;-122.600;2023-04-06T07:48:41;7.50;99.90
1361;DHT22;674;45.552;-122.600;2023-04-06T07:51:09;7.50;99.90
1361;DHT22;674;45.552;-122.600;2023-04-06T07:53:42;7.60;99.90
1361;DHT22;674;45.552;-122.600;2023-04-06T07:56:10;7.50;99.90
1361;DHT22;674;45.552;-122.600;2023-04-06T07:58:40;7.40;99.90
1361;DHT22;674;45.552;-122.600;2023-04-06T08:01:08;7.40;99.90
1361;DHT22;674;45.552;-122.600;2023-04-06T08:03:37;7.50;99.90
1361;DHT22;674;45.552;-122.600;2023-04-06T08:06:06;7.50;99.90
1361;DHT22;674;45.552;-122.600;2023-04-06T08:08:34;7.50;99.90
1361;DHT22;674;45.552;-122.600;2023-04-06T08:11:03;7.40;99.90
1361;DHT22;674;45.552;-122.600;2023-04-06T08:13:31;7.30;99.90
1361;DHT22;674;45.552;-122.600;2023-04-06T08:16:00;7.30;99.90
1361;DHT22;674;45.552;-122.600;2023-04-06T08:18:28;7.30;99.90
1361;DHT22;674;45.552;-122.600;2023-04-06T08:20:57;7.40;99.90
1361;DHT22;674;45.552;-122.600;2023-04-06T08:23:26;7.40;99.90
1361;DHT22;674;45.552;-122.600;2023-04-06T08:25:55;7.40;99.90
1361;DHT22;674;45.552;-122.600;2023-04-06T08:28:23;7.50;99.90
1361;DHT22;674;45.552;-122.600;2023-04-06T08:30:52;7.50;99.90
1361;DHT22;674;45.552;-122.600;2023-04-06T08:33:21;7.40;99.90
1361;DHT22;674;45.552;-122.600;2023-04-06T08:35:49;7.30;99.90
1361;DHT22;674;45.552;-122.600;2023-04-06T08:38:18;7.50;99.90
1361;DHT22;674;45.552;-122.600;2023-04-06T08:40:47;7.40;99.90
1361;DHT22;674;45.552;-122.600;2023-04-06T08:43:20;7.30;99.90
1361;DHT22;674;45.552;-122.600;2023-04-06T08:45:51;7.40;99.90
1361;DHT22;674;45.552;-122.600;2023-04-06T08:48:19;7.40;99.90
1361;DHT22;674;45.552;-122.600;2023-04-06T08:50:49;7.40;99.90
1361;DHT22;674;45.552;-122.600;2023-04-06T08:53:18;7.40;99.90
1361;DHT22;674;45.552;-122.600;2023-04-06T08:55:50;7.50;99.90
1361;DHT22;674;45.552;-122.600;2023-04-06T08:58:19;7.50;99.90
1361;DHT22;674;45.552;-122.600;2023-04-06T09:01:07;7.60;99.90
1361;DHT22;674;45.552;-122.600;2023-04-06T09:03:38;7.50;99.90
1361;DHT22;674;45.552;-122.600;2023-04-06T09:06:10;7.60;99.90
1361;DHT22;674;45.552;-122.600;2023-04-06T09:08:40;7.50;99.90
1361;DHT22;674;45.552;-122.600;2023-04-06T09:11:10;7.50;99.90
1361;DHT22;674;45.552;-122.600;2023-04-06T09:13:49;7.50;99.90
1361;DHT22;674;45.552;-122.600;2023-04-06T09:16:19;7.60;99.90
1361;DHT22;674;45.552;-122.600;2023-04-06T09:18:49;7.50;99.90
1361;DHT22;674;45.552;-122.600;2023-04-06T09:21:18;7.40;99.90
1361;DHT22;674;45.552;-122.600;2023-04-06T09:24:01;7.40;99.90
1361;DHT22;674;45.552;-122.600;2023-04-06T09:26:31;7.20;99.90
1361;DHT22;674;45.552;-122.600;2023-04-06T09:29:01;7.70;99.90
1361;DHT22;674;45.552;-122.600;2023-04-06T09:31:31;7.50;99.90
1361;DHT22;674;45.552;-122.600;2023-04-06T09:34:03;7.60;99.90
1361;DHT22;674;45.552;-122.600;2023-04-06T09:36:33;7.30;99.90
1361;DHT22;674;45.552;-122.600;2023-04-06T09:39:03;7.30;99.90
1361;DHT22;674;45.552;-122.600;2023-04-06T09:41:34;7.30;99.90
1361;DHT22;674;45.552;-122.600;2023-04-06T09:44:10;7.30;99.90
1361;DHT22;674;45.552;-122.600;2023-04-06T09:46:41;7.30;99.90
1361;DHT22;674;45.552;-122.600;2023-04-06T09:49:31;7.30;99.90
1361;DHT22;674;45.552;-122.600;2023-04-06T09:52:06;7.20;99.90
1361;DHT22;674;45.552;-122.600;2023-04-06T09:54:36;7.20;99.90
1361;DHT22;674;45.552;-122.600;2023-04-06T09:59:44;7.50;99.90
1361;DHT22;674;45.552;-122.600;2023-04-06T10:05:09;7.20;99.90
1361;DHT22;674;45.552;-122.600;2023-04-06T10:07:40;7.20;99.90
1361;DHT22;674;45.552;-122.600;2023-04-06T10:10:27;7.30;99.90
1361;DHT22;674;45.552;-122.600;2023-04-06T10:12:57;7.20;99.90
1361;DHT22;674;45.552;-122.600;2023-04-06T10:15:28;7.20;99.90
1361;DHT22;674;45.552;-122.600;2023-04-06T10:17:59;7.20;99.90
1361;DHT22;674;45.552;-122.600;2023-04-06T10:20:43;7.20;99.90
1361;DHT22;674;45.552;-122.600;2023-04-06T10:25:54;7.10;99.90
1361;DHT22;674;45.552;-122.600;2023-04-06T10:28:24;7.10;99.90
1361;DHT22;674;45.552;-122.600;2023-04-06T10:31:00;7.10;99.90
1361;DHT22;674;45.552;-122.600;2023-04-06T10:33:29;7.30;99.90
1361;DHT22;674;45.552;-122.600;2023-04-06T10:35:57;7.20;99.90
1361;DHT22;674;45.552;-122.600;2023-04-06T10:38:39;7.20;99.90
1361;DHT22;674;45.552;-122.600;2023-04-06T10:41:10;7.20;99.90
1361;DHT22;674;45.552;-122.600;2023-04-06T10:43:41;7.20;99.90
1361;DHT22;674;45.552;-122.600;2023-04-06T10:46:10;7.20;99.90
1361;DHT22;674;45.552;-122.600;2023-04-06T10:48:43;7.10;99.90
1361;DHT22;674;45.552;-122.600;2023-04-06T10:51:16;7.10;99.90
1361;DHT22;674;45.552;-122.600;2023-04-06T10:53:46;7.10;99.90
1361;DHT22;674;45.552;-122.600;2023-04-06T10:56:22;7.20;99.90
1361;DHT22;674;45.552;-122.600;2023-04-06T10:58:52;7.10;99.90
1361;DHT22;674;45.552;-122.600;2023-04-06T11:01:22;7.10;99.90
1361;DHT22;674;45.552;-122.600;2023-04-06T11:03:53;7.10;99.90
1361;DHT22;674;45.552;-122.600;2023-04-06T11:06:27;7.10;99.90
1361;DHT22;674;45.552;-122.600;2023-04-06T11:08:57;7.20;99.90
1361;DHT22;674;45.552;-122.600;2023-04-06T11:11:26;7.20;99.90
1361;DHT22;674;45.552;-122.600;2023-04-06T11:13:57;7.20;99.90
1361;DHT22;674;45.552;-122.600;2023-04-06T11:16:30;7.10;99.90
1361;DHT22;674;45.552;-122.600;2023-04-06T11:19:03;7.30;99.90
1361;DHT22;674;45.552;-122.600;2023-04-06T11:21:41;7.20;99.90
1361;DHT22;674;45.552;-122.600;2023-04-06T11:24:22;7.10;99.90
1361;DHT22;674;45.552;-122.600;2023-04-06T11:26:58;7.10;99.90
1361;DHT22;674;45.552;-122.600;2023-04-06T11:29:30;7.10;99.90
1361;DHT22;674;45.552;-122.600;2023-04-06T11:32:06;7.30;99.90
1361;DHT22;674;45.552;-122.600;2023-04-06T11:34:38;7.10;99.90
1361;DHT22;674;45.552;-122.600;2023-04-06T11:37:09;7.10;99.90
1361;DHT22;674;45.552;-122.600;2023-04-06T11:39:48;7.20;99.90
1361;DHT22;674;45.552;-122.600;2023-04-06T11:42:24;7.10;99.90
1361;DHT22;674;45.552;-122.600;2023-04-06T11:44:58;7.10;99.90
1361;DHT22;674;45.552;-122.600;2023-04-06T11:47:34;7.10;99.90
1361;DHT22;674;45.552;-122.600;2023-04-06T11:50:13;7.20;99.90
1361;DHT22;674;45.552;-122.600;2023-04-06T11:52:42;7.10;99.90
1361;DHT22;674;45.552;-122.600;2023-04-06T11:55:18;7.10;99.90
1361;DHT22;674;45.552;-122.600;2023-04-06T11:57:47;7.20;99.90
1361;DHT22;674;45.552;-122.600;2023-04-06T12:00:15;7.10;99.90
1361;DHT22;674;45.552;-122.600;2023-04-06T12:02:48;7.20;99.90
1361;DHT22;674;45.552;-122.600;2023-04-06T12:05:17;7.20;99.90
1361;DHT22;674;45.552;-122.600;2023-04-06T12:07:45;7.20;99.90
1361;DHT22;674;45.552;-122.600;2023-04-06T12:10:14;7.20;99.90
1361;DHT22;674;45.552;-122.600;2023-04-06T12:12:42;7.10;99.90
1361;DHT22;674;45.552;-122.600;2023-04-06T12:15:11;7.10;99.90
1361;DHT22;674;45.552;-122.600;2023-04-06T12:17:39;7.10;99.90
1361;DHT22;674;45.552;-122.600;2023-04-06T12:20:08;7.10;99.90
1361;DHT22;674;45.552;-122.600;2023-04-06T12:22:51;7.10;99.90
1361;DHT22;674;45.552;-122.600;2023-04-06T12:25:20;7.10;99.90
1361;DHT22;674;45.552;-122.600;2023-04-06T12:27:49;7.30;99.90
1361;DHT22;674;45.552;-122.600;2023-04-06T12:30:17;7.20;99.90
1361;DHT22;674;45.552;-122.600;2023-04-06T12:32:46;7.20;99.90
1361;DHT22;674;45.552;-122.600;2023-04-06T12:35:17;7.10;99.90
1361;DHT22;674;45.552;-122.600;2023-04-06T12:37:46;7.10;99.90
1361;DHT22;674;45.552;-122.600;2023-04-06T12:40:14;7.10;99.90
1361;DHT22;674;45.552;-122.600;2023-04-06T12:42:43;7.20;99.90
1361;DHT22;674;45.552;-122.600;2023-04-06T12:45:11;7.20;99.90
1361;DHT22;674;45.552;-122.600;2023-04-06T12:47:40;7.20;99.90
1361;DHT22;674;45.552;-122.600;2023-04-06T12:50:09;7.10;99.90
1361;DHT22;674;45.552;-122.600;2023-04-06T12:52:37;7.10;99.90
1361;DHT22;674;45.552;-122.600;2023-04-06T12:55:06;7.20;99.90
1361;DHT22;674;45.552;-122.600;2023-04-06T12:57:35;7.20;99.90
1361;DHT22;674;45.552;-122.600;2023-04-06T13:00:05;7.10;99.90
1361;DHT22;674;45.552;-122.600;2023-04-06T13:02:35;7.20;99.90
1361;DHT22;674;45.552;-122.600;2023-04-06T13:05:04;7.20;99.90
1361;DHT22;674;45.552;-122.600;2023-04-06T13:07:33;7.20;99.90
1361;DHT22;674;45.552;-122.600;2023-04-06T13:10:01;7.30;99.90
1361;DHT22;674;45.552;-122.600;2023-04-06T13:12:30;7.30;99.90
1361;DHT22;674;45.552;-122.600;2023-04-06T13:14:58;7.50;99.90
1361;DHT22;674;45.552;-122.600;2023-04-06T13:17:29;7.20;99.90
1361;DHT22;674;45.552;-122.600;2023-04-06T13:19:58;7.30;99.90
1361;DHT22;674;45.552;-122.600;2023-04-06T13:22:26;7.30;99.90
1361;DHT22;674;45.552;-122.600;2023-04-06T13:24:55;7.50;99.90
1361;DHT22;674;45.552;-122.600;2023-04-06T13:27:23;7.30;99.90
1361;DHT22;674;45.552;-122.600;2023-04-06T13:29:52;7.40;99.90
1361;DHT22;674;45.552;-122.600;2023-04-06T13:32:21;7.20;99.90
1361;DHT22;674;45.552;-122.600;2023-04-06T13:34:49;7.50;99.90
1361;DHT22;674;45.552;-122.600;2023-04-06T13:37:18;7.40;99.90
1361;DHT22;674;45.552;-122.600;2023-04-06T13:39:46;7.70;99.90
1361;DHT22;674;45.552;-122.600;2023-04-06T13:42:15;7.60;99.90
1361;DHT22;674;45.552;-122.600;2023-04-06T13:44:43;7.50;99.90
1361;DHT22;674;45.552;-122.600;2023-04-06T13:47:14;7.50;99.90
1361;DHT22;674;45.552;-122.600;2023-04-06T13:49:43;7.60;99.90
1361;DHT22;674;45.552;-122.600;2023-04-06T13:52:12;7.40;99.90
1361;DHT22;674;45.552;-122.600;2023-04-06T13:54:41;7.50;99.90
1361;DHT22;674;45.552;-122.600;2023-04-06T13:57:09;7.50;99.90
1361;DHT22;674;45.552;-122.600;2023-04-06T13:59:39;7.50;99.90
1361;DHT22;674;45.552;-122.600;2023-04-06T14:02:09;7.50;99.90
1361;DHT22;674;45.552;-122.600;2023-04-06T14:04:38;7.60;99.90
1361;DHT22;674;45.552;-122.600;2023-04-06T14:07:07;7.60;99.90
1361;DHT22;674;45.552;-122.600;2023-04-06T14:09:35;7.50;99.90
1361;DHT22;674;45.552;-122.600;2023-04-06T14:12:04;7.50;99.90
1361;DHT22;674;45.552;-122.600;2023-04-06T14:14:32;7.60;99.90
1361;DHT22;674;45.552;-122.600;2023-04-06T14:17:00;7.50;99.90
1361;DHT22;674;45.552;-122.600;2023-04-06T14:19:29;7.50;99.90
1361;DHT22;674;45.552;-122.600;2023-04-06T14:21:58;7.60;99.90
1361;DHT22;674;45.552;-122.600;2023-04-06T14:24:26;7.50;99.90
1361;DHT22;674;45.552;-122.600;2023-04-06T14:26:55;7.60;99.90
1361;DHT22;674;45.552;-122.600;2023-04-06T14:29:24;7.40;99.90
1361;DHT22;674;45.552;-122.600;2023-04-06T14:31:53;7.40;99.90
1361;DHT22;674;45.552;-122.600;2023-04-06T14:34:27;7.60;99.90
1361;DHT22;674;45.552;-122.600;2023-04-06T14:36:56;7.50;99.90
1361;DHT22;674;45.552;-122.600;2023-04-06T14:39:25;7.50;99.90
1361;DHT22;674;45.552;-122.600;2023-04-06T14:41:53;7.40;99.90
1361;DHT22;674;45.552;-122.600;2023-04-06T14:44:22;7.50;99.90
1361;DHT22;674;45.552;-122.600;2023-04-06T14:46:50;7.50;99.90
1361;DHT22;674;45.552;-122.600;2023-04-06T14:49:19;7.60;99.90
1361;DHT22;674;45.552;-122.600;2023-04-06T14:51:48;7.50;99.90
1361;DHT22;674;45.552;-122.600;2023-04-06T14:54:16;7.50;99.90
1361;DHT22;674;45.552;-122.600;2023-04-06T14:56:45;7.60;99.90
1361;DHT22;674;45.552;-122.600;2023-04-06T14:59:13;7.60;99.90
1361;DHT22;674;45.552;-122.600;2023-04-06T15:01:42;7.50;99.90
1361;DHT22;674;45.552;-122.600;2023-04-06T15:04:11;7.60;99.90
1361;DHT22;674;45.552;-122.600;2023-04-06T15:06:39;7.60;99.90
1361;DHT22;674;45.552;-122.600;2023-04-06T15:09:08;7.60;99.90
1361;DHT22;674;45.552;-122.600;2023-04-06T15:11:37;7.60;99.90
1361;DHT22;674;45.552;-122.600;2023-04-06T15:14:06;7.70;99.90
1361;DHT22;674;45.552;-122.600;2023-04-06T15:16:34;7.80;99.90
1361;DHT22;674;45.552;-122.600;2023-04-06T15:19:03;7.90;99.90
1361;DHT22;674;45.552;-122.600;2023-04-06T15:21:31;8.20;99.90
1361;DHT22;674;45.552;-122.600;2023-04-06T15:24:00;8.00;99.90
1361;DHT22;674;45.552;-122.600;2023-04-06T15:26:29;7.90;99.90
1361;DHT22;674;45.552;-122.600;2023-04-06T15:28:57;7.90;99.90
1361;DHT22;674;45.552;-122.600;2023-04-06T15:31:28;7.90;99.90
1361;DHT22;674;45.552;-122.600;2023-04-06T15:34:04;8.10;99.90
1361;DHT22;674;45.552;-122.600;2023-04-06T15:36:33;8.10;99.90
1361;DHT22;674;45.552;-122.600;2023-04-06T15:39:02;8.30;99.90
1361;DHT22;674;45.552;-122.600;2023-04-06T15:41:31;8.30;99.90
1361;DHT22;674;45.552;-122.600;2023-04-06T15:43:59;8.30;99.90
1361;DHT22;674;45.552;-122.600;2023-04-06T15:46:28;8.50;99.90
1361;DHT22;674;45.552;-122.600;2023-04-06T15:48:56;8.30;99.90
1361;DHT22;674;45.552;-122.600;2023-04-06T15:51:25;8.50;99.90
1361;DHT22;674;45.552;-122.600;2023-04-06T15:53:54;8.50;99.90
1361;DHT22;674;45.552;-122.600;2023-04-06T15:56:22;8.30;99.90
1361;DHT22;674;45.552;-122.600;2023-04-06T15:58:51;8.40;99.90
1361;DHT22;674;45.552;-122.600;2023-04-06T16:01:19;8.40;99.90
1361;DHT22;674;45.552;-122.600;2023-04-06T16:03:48;8.40;99.90
1361;DHT22;674;45.552;-122.600;2023-04-06T16:06:17;8.40;99.90
1361;DHT22;674;45.552;-122.600;2023-04-06T16:08:45;8.40;99.90